Time;durP1;ratioP1;P1;durP2;ratioP2;P2;SDS_P1;SDS_P2;PMS_P1;PMS_P2;Temp;Humidity;BMP_temperature;BMP_pressure;BME280_temperature;BME280_humidity;BME280_pressure;Samples;Min_cycle;Max_cycle;Signal;HPM_P1;HPM_P2
2022/03/06 00:00:10;;;;;;;26.93;15.50;;;;;;;;;;5097999;28;20192;-68
2022/03/06 00:02:36;;;;;;;28.63;15.83;;;;;;;;;;5105869;28;20256;-68
2022/03/06 00:05:02;;;;;;;29.70;16.90;;;;;;;;;;5104325;28;20206;-68
2022/03/06 00:07:27;;;;;;;28.37;16.17;;;;;;;;;;5106932;28;20200;-68
2022/03/06 00:09:52;;;;;;;36.60;17.30;;;;;;;;;;5104823;28;20648;-68
2022/03/06 00:12:17;;;;;;;32.17;17.37;;;;;;;;;;5099192;28;20175;-68
2022/03/06 00:14:43;;;;;;;30.00;15.70;;;;;;;;;;5101265;28;20581;-68
2022/03/06 00:17:08;;;;;;;25.47;15.33;;;;;;;;;;5101633;28;20321;-68
2022/03/06 00:19:33;;;;;;;28.87;16.00;;;;;;;;;;5108631;28;20185;-68
2022/03/06 00:21:58;;;;;;;26.70;14.87;;;;;;;;;;5105880;28;20633;-68
2022/03/06 00:24:24;;;;;;;27.37;15.47;;;;;;;;;;5101069;28;20233;-69
2022/03/06 00:26:49;;;;;;;26.50;15.93;;;;;;;;;;5070823;28;20525;-68
2022/03/06 00:29:14;;;;;;;26.20;14.87;;;;;;;;;;5083323;28;20776;-69
2022/03/06 00:31:39;;;;;;;25.30;14.97;;;;;;;;;;5105283;28;20176;-69
2022/03/06 00:34:05;;;;;;;27.93;15.87;;;;;;;;;;5109070;28;20633;-69
2022/03/06 00:36:30;;;;;;;25.60;15.73;;;;;;;;;;5102504;28;20220;-69
2022/03/06 00:38:55;;;;;;;27.80;15.93;;;;;;;;;;5108173;28;20256;-68
2022/03/06 00:41:22;;;;;;;27.30;15.23;;;;;;;;;;5104664;28;20187;-68
2022/03/06 00:43:47;;;;;;;26.50;15.27;;;;;;;;;;5104540;28;20254;-68
2022/03/06 00:46:13;;;;;;;28.17;14.77;;;;;;;;;;5109182;27;20259;-68
2022/03/06 00:48:38;;;;;;;26.53;14.80;;;;;;;;;;5098076;27;20206;-68
2022/03/06 00:51:03;;;;;;;27.93;15.60;;;;;;;;;;5108737;28;20571;-68
2022/03/06 00:53:28;;;;;;;27.57;14.93;;;;;;;;;;5104992;28;20687;-68
2022/03/06 00:55:53;;;;;;;26.03;14.47;;;;;;;;;;5106340;28;20182;-68
2022/03/06 00:58:19;;;;;;;25.17;15.07;;;;;;;;;;5100660;28;20227;-68
2022/03/06 01:00:46;;;;;;;26.30;14.00;;;;;;;;;;5101590;28;20186;-68
2022/03/06 01:03:12;;;;;;;26.77;14.03;;;;;;;;;;5099057;28;20256;-68
2022/03/06 01:05:37;;;;;;;27.67;14.80;;;;;;;;;;5108783;28;20290;-68
2022/03/06 01:08:04;;;;;;;25.77;14.97;;;;;;;;;;5102841;28;20275;-68
2022/03/06 01:10:29;;;;;;;28.10;14.23;;;;;;;;;;5111486;28;20175;-68
2022/03/06 01:12:55;;;;;;;23.20;14.57;;;;;;;;;;5110639;28;20172;-68
2022/03/06 01:15:20;;;;;;;26.93;15.57;;;;;;;;;;5102049;28;20255;-67
2022/03/06 01:17:45;;;;;;;24.27;15.17;;;;;;;;;;5110002;28;20191;-68
2022/03/06 01:20:11;;;;;;;24.77;13.23;;;;;;;;;;5102642;28;20173;-68
2022/03/06 01:22:36;;;;;;;25.63;15.33;;;;;;;;;;5109556;28;20308;-68
2022/03/06 01:25:02;;;;;;;24.80;14.27;;;;;;;;;;5099164;28;20198;-68
2022/03/06 01:27:27;;;;;;;25.23;15.17;;;;;;;;;;5102677;28;20206;-68
2022/03/06 01:29:52;;;;;;;20.63;13.20;;;;;;;;;;5099125;28;20184;-68
2022/03/06 01:32:17;;;;;;;27.27;14.33;;;;;;;;;;5108747;28;20194;-68
2022/03/06 01:34:42;;;;;;;24.70;14.67;;;;;;;;;;5101950;28;20177;-68
2022/03/06 01:37:08;;;;;;;25.33;14.73;;;;;;;;;;5106503;28;20554;-68
2022/03/06 01:39:33;;;;;;;23.60;13.30;;;;;;;;;;5109200;28;20191;-68
2022/03/06 01:41:58;;;;;;;22.57;12.90;;;;;;;;;;5103891;28;20222;-68
2022/03/06 01:44:23;;;;;;;23.03;13.50;;;;;;;;;;5104107;28;20211;-68
2022/03/06 01:46:48;;;;;;;25.13;13.80;;;;;;;;;;5111497;28;20620;-68
2022/03/06 01:49:14;;;;;;;23.77;12.80;;;;;;;;;;5108687;28;20179;-68
2022/03/06 01:51:40;;;;;;;22.20;13.70;;;;;;;;;;5103093;28;20175;-68
2022/03/06 01:54:05;;;;;;;22.97;13.47;;;;;;;;;;5108117;28;20182;-68
2022/03/06 01:56:30;;;;;;;25.23;13.87;;;;;;;;;;5105606;28;20172;-68
2022/03/06 01:58:57;;;;;;;25.97;13.37;;;;;;;;;;5098026;28;20286;-68
2022/03/06 02:01:22;;;;;;;21.50;13.07;;;;;;;;;;5099500;28;20184;-68
2022/03/06 02:03:47;;;;;;;25.23;13.57;;;;;;;;;;5101206;28;20710;-68
2022/03/06 02:06:13;;;;;;;19.30;13.53;;;;;;;;;;5107569;28;20187;-68
2022/03/06 02:08:39;;;;;;;21.20;13.07;;;;;;;;;;5104353;28;20200;-68
2022/03/06 02:11:05;;;;;;;21.77;13.27;;;;;;;;;;5106967;28;20514;-68
2022/03/06 02:13:30;;;;;;;20.93;13.07;;;;;;;;;;5105617;28;20543;-67
2022/03/06 02:15:56;;;;;;;20.33;12.37;;;;;;;;;;5106142;28;20188;-68
2022/03/06 02:18:21;;;;;;;22.10;12.57;;;;;;;;;;5094612;28;20203;-68
2022/03/06 02:20:47;;;;;;;22.90;13.37;;;;;;;;;;5109721;28;20304;-68
2022/03/06 02:23:12;;;;;;;18.63;12.50;;;;;;;;;;5104693;28;20644;-68
2022/03/06 02:25:37;;;;;;;19.87;12.40;;;;;;;;;;5104191;28;20284;-68
2022/03/06 02:28:06;;;;;;;18.23;11.27;;;;;;;;;;5105112;28;20284;-68
2022/03/06 02:30:33;;;;;;;18.00;11.20;;;;;;;;;;5110537;28;20645;-68
2022/03/06 02:32:59;;;;;;;19.37;11.10;;;;;;;;;;5104330;28;20237;-68
2022/03/06 02:35:24;;;;;;;17.73;11.37;;;;;;;;;;5106490;28;20187;-68
2022/03/06 02:37:49;;;;;;;20.07;11.70;;;;;;;;;;5104975;28;20211;-68
2022/03/06 02:40:15;;;;;;;17.33;10.87;;;;;;;;;;5109889;28;20191;-68
2022/03/06 02:42:42;;;;;;;19.03;10.93;;;;;;;;;;5115050;27;20396;-68
2022/03/06 02:45:10;;;;;;;19.53;12.10;;;;;;;;;;5094801;28;20229;-68
2022/03/06 02:47:35;;;;;;;16.63;10.73;;;;;;;;;;5114088;28;20589;-68
2022/03/06 02:50:02;;;;;;;17.40;11.67;;;;;;;;;;5111231;28;20164;-68
2022/03/06 02:52:27;;;;;;;16.70;11.43;;;;;;;;;;5111796;28;20172;-68
2022/03/06 02:54:52;;;;;;;15.37;10.33;;;;;;;;;;5112325;28;20175;-68
2022/03/06 02:57:18;;;;;;;18.73;10.60;;;;;;;;;;5108671;28;20191;-68
2022/03/06 02:59:43;;;;;;;23.17;11.90;;;;;;;;;;5104415;28;20523;-68
2022/03/06 03:02:08;;;;;;;15.93;10.73;;;;;;;;;;5097215;28;20191;-68
2022/03/06 03:04:37;;;;;;;18.13;10.63;;;;;;;;;;5102759;28;20191;-68
2022/03/06 03:07:02;;;;;;;17.80;11.10;;;;;;;;;;5103513;28;20313;-68
2022/03/06 03:09:27;;;;;;;16.93;10.77;;;;;;;;;;5101899;28;20263;-68
2022/03/06 03:11:54;;;;;;;16.43;10.93;;;;;;;;;;5102468;28;20180;-68
2022/03/06 03:14:20;;;;;;;15.70;10.60;;;;;;;;;;5106565;28;20183;-68
2022/03/06 03:16:45;;;;;;;18.47;10.67;;;;;;;;;;5100522;28;20176;-68
2022/03/06 03:19:11;;;;;;;17.17;10.70;;;;;;;;;;5111154;27;20274;-68
2022/03/06 03:21:36;;;;;;;16.37;11.27;;;;;;;;;;5106398;28;20177;-68
2022/03/06 03:24:02;;;;;;;17.77;10.53;;;;;;;;;;5099316;28;20207;-68
2022/03/06 03:26:27;;;;;;;19.17;11.10;;;;;;;;;;5112095;28;20184;-68
2022/03/06 03:28:52;;;;;;;16.40;10.63;;;;;;;;;;5097224;28;20638;-67
2022/03/06 03:31:18;;;;;;;15.80;10.83;;;;;;;;;;5109099;28;20186;-68
2022/03/06 03:33:43;;;;;;;18.23;11.10;;;;;;;;;;5097856;28;20180;-67
2022/03/06 03:36:09;;;;;;;15.33;10.10;;;;;;;;;;5112137;28;20178;-68
2022/03/06 03:38:34;;;;;;;20.07;11.97;;;;;;;;;;5104399;28;20207;-68
2022/03/06 03:41:01;;;;;;;22.53;11.87;;;;;;;;;;5109648;28;20180;-68
2022/03/06 03:43:26;;;;;;;16.17;11.27;;;;;;;;;;5092472;28;20609;-68
2022/03/06 03:45:52;;;;;;;21.67;12.23;;;;;;;;;;5109018;28;20324;-68
2022/03/06 03:48:18;;;;;;;19.23;12.00;;;;;;;;;;5113120;28;20191;-68
2022/03/06 03:50:43;;;;;;;19.87;11.70;;;;;;;;;;5107005;28;20676;-68
2022/03/06 03:53:08;;;;;;;19.50;11.30;;;;;;;;;;5099736;28;20173;-68
2022/03/06 03:55:33;;;;;;;17.83;12.57;;;;;;;;;;5108105;28;20171;-68
2022/03/06 03:57:58;;;;;;;19.33;12.47;;;;;;;;;;5102634;28;20724;-68
2022/03/06 04:00:24;;;;;;;18.40;12.00;;;;;;;;;;5103637;28;20199;-68
2022/03/06 04:02:49;;;;;;;20.30;12.47;;;;;;;;;;5106798;28;20756;-68
2022/03/06 04:05:14;;;;;;;20.13;12.60;;;;;;;;;;5103409;28;20222;-68
2022/03/06 04:07:39;;;;;;;21.67;12.90;;;;;;;;;;5108604;28;20253;-68
2022/03/06 04:10:05;;;;;;;22.43;13.13;;;;;;;;;;5108510;28;20179;-68
2022/03/06 04:12:30;;;;;;;18.70;12.60;;;;;;;;;;5111096;28;20179;-68
2022/03/06 04:14:55;;;;;;;24.27;14.50;;;;;;;;;;5096375;28;20206;-68
2022/03/06 04:17:20;;;;;;;20.97;12.83;;;;;;;;;;5109488;28;20215;-68
2022/03/06 04:19:46;;;;;;;19.87;12.67;;;;;;;;;;5114786;27;20270;-68
2022/03/06 04:22:11;;;;;;;24.67;14.13;;;;;;;;;;5109046;28;20187;-68
2022/03/06 04:24:36;;;;;;;21.07;13.67;;;;;;;;;;5110167;28;20249;-68
2022/03/06 04:27:01;;;;;;;22.93;13.80;;;;;;;;;;5110714;28;20175;-68
2022/03/06 04:29:26;;;;;;;21.73;13.80;;;;;;;;;;5107086;27;20270;-68
2022/03/06 04:31:52;;;;;;;19.80;13.30;;;;;;;;;;5100229;28;20176;-68
2022/03/06 04:34:17;;;;;;;21.13;14.20;;;;;;;;;;5105552;28;20190;-68
2022/03/06 04:36:42;;;;;;;20.17;14.63;;;;;;;;;;5079514;28;20239;-68
2022/03/06 04:39:08;;;;;;;22.20;14.67;;;;;;;;;;5100990;28;20208;-68
2022/03/06 04:41:33;;;;;;;22.50;14.80;;;;;;;;;;5106878;27;20180;-68
2022/03/06 04:43:58;;;;;;;25.00;14.07;;;;;;;;;;5100293;28;20187;-68
2022/03/06 04:46:23;;;;;;;22.97;14.70;;;;;;;;;;5104296;28;20183;-68
2022/03/06 04:48:48;;;;;;;22.57;15.03;;;;;;;;;;5105895;28;20199;-68
2022/03/06 04:51:14;;;;;;;22.43;14.27;;;;;;;;;;5104207;28;20179;-68
2022/03/06 04:53:39;;;;;;;26.47;15.77;;;;;;;;;;5106585;28;20176;-68
2022/03/06 04:56:05;;;;;;;24.43;15.43;;;;;;;;;;5098837;28;20573;-68
2022/03/06 04:58:30;;;;;;;21.53;14.30;;;;;;;;;;5102357;27;20191;-68
2022/03/06 05:00:55;;;;;;;23.17;14.77;;;;;;;;;;5106398;28;20208;-68
2022/03/06 05:03:20;;;;;;;22.80;15.10;;;;;;;;;;5094355;28;20176;-68
2022/03/06 05:05:46;;;;;;;23.63;13.97;;;;;;;;;;5093956;28;20208;-68
2022/03/06 05:08:11;;;;;;;22.87;15.03;;;;;;;;;;5105093;28;20201;-68
2022/03/06 05:10:36;;;;;;;23.93;14.93;;;;;;;;;;5099231;28;20180;-68
2022/03/06 05:13:01;;;;;;;26.80;15.50;;;;;;;;;;5093013;28;20183;-68
2022/03/06 05:15:27;;;;;;;26.93;16.63;;;;;;;;;;5102343;28;20184;-67
2022/03/06 05:17:52;;;;;;;27.90;16.60;;;;;;;;;;5098029;28;20580;-68
2022/03/06 05:20:17;;;;;;;28.53;15.93;;;;;;;;;;5110498;27;20179;-68
2022/03/06 05:22:43;;;;;;;25.03;15.70;;;;;;;;;;5096380;28;20172;-68
2022/03/06 05:25:09;;;;;;;22.63;14.93;;;;;;;;;;5103345;28;20184;-67
2022/03/06 05:27:34;;;;;;;23.70;16.20;;;;;;;;;;5102382;28;20266;-68
2022/03/06 05:29:59;;;;;;;23.57;14.97;;;;;;;;;;5105840;28;20274;-68
2022/03/06 05:32:24;;;;;;;26.00;16.60;;;;;;;;;;5103763;28;20168;-68
2022/03/06 05:34:50;;;;;;;26.10;16.73;;;;;;;;;;5103788;28;20545;-68
2022/03/06 05:37:15;;;;;;;21.10;13.63;;;;;;;;;;5098696;28;20204;-68
2022/03/06 05:39:41;;;;;;;24.70;16.50;;;;;;;;;;5099046;28;20207;-68
2022/03/06 05:42:07;;;;;;;26.07;15.23;;;;;;;;;;5099370;28;20268;-67
2022/03/06 05:44:32;;;;;;;23.80;15.77;;;;;;;;;;5101013;28;20207;-68
2022/03/06 05:46:57;;;;;;;25.93;17.13;;;;;;;;;;5100071;28;20546;-68
2022/03/06 05:49:22;;;;;;;25.23;16.23;;;;;;;;;;5103441;28;20540;-68
2022/03/06 05:51:47;;;;;;;25.33;16.73;;;;;;;;;;5097445;28;20172;-68
2022/03/06 05:54:13;;;;;;;22.53;15.83;;;;;;;;;;5101564;28;20175;-68
2022/03/06 05:56:39;;;;;;;24.47;15.87;;;;;;;;;;5106424;28;20528;-68
2022/03/06 05:59:04;;;;;;;22.77;15.67;;;;;;;;;;5085985;28;20252;-68
2022/03/06 06:01:30;;;;;;;23.60;16.27;;;;;;;;;;5092268;28;20175;-67
2022/03/06 06:03:56;;;;;;;24.83;15.73;;;;;;;;;;5105416;28;20555;-68
2022/03/06 06:06:22;;;;;;;25.27;15.67;;;;;;;;;;5099040;28;20184;-69
2022/03/06 06:08:47;;;;;;;26.73;16.03;;;;;;;;;;5103036;28;20203;-68
2022/03/06 06:11:13;;;;;;;21.60;14.97;;;;;;;;;;5101932;28;20171;-68
2022/03/06 06:13:38;;;;;;;26.63;15.57;;;;;;;;;;5100260;28;20247;-68
2022/03/06 06:16:03;;;;;;;23.60;15.37;;;;;;;;;;5102057;28;20549;-68
2022/03/06 06:18:30;;;;;;;22.03;15.40;;;;;;;;;;5105789;28;20227;-68
2022/03/06 06:20:56;;;;;;;23.23;15.37;;;;;;;;;;5109444;28;20168;-68
2022/03/06 06:23:21;;;;;;;22.43;14.97;;;;;;;;;;5087979;28;20245;-69
2022/03/06 06:25:46;;;;;;;26.17;15.83;;;;;;;;;;5092506;28;20192;-68
2022/03/06 06:28:11;;;;;;;24.43;14.87;;;;;;;;;;5098425;28;20226;-68
2022/03/06 06:30:37;;;;;;;24.30;16.17;;;;;;;;;;5100148;28;20180;-68
2022/03/06 06:33:02;;;;;;;23.73;15.13;;;;;;;;;;5100631;28;20222;-68
2022/03/06 06:35:27;;;;;;;23.13;15.63;;;;;;;;;;5080474;28;20568;-68
2022/03/06 06:37:52;;;;;;;23.67;15.23;;;;;;;;;;5106989;28;20207;-68
2022/03/06 06:40:18;;;;;;;24.83;16.33;;;;;;;;;;5103667;28;20589;-68
2022/03/06 06:42:43;;;;;;;24.87;15.67;;;;;;;;;;5098170;28;20188;-69
2022/03/06 06:45:08;;;;;;;24.43;15.47;;;;;;;;;;5102120;28;20203;-68
2022/03/06 06:47:34;;;;;;;22.67;15.73;;;;;;;;;;5104774;28;20219;-68
2022/03/06 06:49:59;;;;;;;23.07;15.93;;;;;;;;;;5101948;28;20194;-68
2022/03/06 06:52:24;;;;;;;24.60;15.07;;;;;;;;;;5105657;28;20671;-68
2022/03/06 06:54:49;;;;;;;26.63;16.70;;;;;;;;;;5098686;28;20246;-68
2022/03/06 06:57:14;;;;;;;21.20;15.10;;;;;;;;;;5096688;28;20752;-70
2022/03/06 06:59:39;;;;;;;21.93;14.73;;;;;;;;;;5106289;28;20199;-68
2022/03/06 07:02:05;;;;;;;22.03;14.93;;;;;;;;;;5095528;28;20233;-68
2022/03/06 07:04:30;;;;;;;22.03;13.53;;;;;;;;;;5097676;28;20199;-68
2022/03/06 07:06:55;;;;;;;22.50;15.10;;;;;;;;;;5104605;28;20168;-68
2022/03/06 07:09:20;;;;;;;22.57;14.90;;;;;;;;;;5106914;28;20204;-68
2022/03/06 07:11:45;;;;;;;23.30;14.50;;;;;;;;;;5097075;28;20316;-68
2022/03/06 07:14:10;;;;;;;22.33;14.13;;;;;;;;;;5102272;28;20192;-68
2022/03/06 07:16:36;;;;;;;20.00;13.17;;;;;;;;;;5095737;28;20172;-68
2022/03/06 07:19:01;;;;;;;21.83;14.30;;;;;;;;;;5086713;27;20205;-68
2022/03/06 07:21:26;;;;;;;19.53;13.10;;;;;;;;;;5106628;28;20195;-68
2022/03/06 07:23:51;;;;;;;17.77;12.60;;;;;;;;;;5101994;28;20183;-68
2022/03/06 07:26:16;;;;;;;18.77;13.57;;;;;;;;;;5110500;28;20530;-68
2022/03/06 07:28:42;;;;;;;17.43;12.50;;;;;;;;;;5100417;28;20225;-69
2022/03/06 07:31:07;;;;;;;18.97;12.77;;;;;;;;;;5106476;28;20191;-68
2022/03/06 07:33:32;;;;;;;17.30;12.03;;;;;;;;;;5104705;28;20688;-68
2022/03/06 07:35:58;;;;;;;17.70;12.40;;;;;;;;;;5107062;28;20199;-68
2022/03/06 07:38:23;;;;;;;22.17;12.83;;;;;;;;;;5099784;28;20681;-68
2022/03/06 07:40:48;;;;;;;15.27;11.30;;;;;;;;;;5103528;28;20201;-68
2022/03/06 07:43:13;;;;;;;17.43;12.50;;;;;;;;;;5109253;28;20186;-68
2022/03/06 07:45:38;;;;;;;16.93;11.63;;;;;;;;;;5101587;28;20238;-68
2022/03/06 07:48:04;;;;;;;16.73;11.50;;;;;;;;;;5108983;28;20195;-68
2022/03/06 07:50:29;;;;;;;16.20;11.20;;;;;;;;;;5106698;28;20167;-68
2022/03/06 07:52:56;;;;;;;15.50;11.87;;;;;;;;;;5104299;28;20220;-68
2022/03/06 07:55:21;;;;;;;15.17;11.30;;;;;;;;;;5100762;28;20276;-68
2022/03/06 07:57:46;;;;;;;16.13;11.43;;;;;;;;;;5105282;28;20740;-68
2022/03/06 08:00:12;;;;;;;14.97;11.03;;;;;;;;;;5080170;28;20183;-68
2022/03/06 08:02:37;;;;;;;15.30;11.33;;;;;;;;;;5100428;27;20172;-68
2022/03/06 08:05:03;;;;;;;13.33;10.37;;;;;;;;;;5102084;28;20273;-68
2022/03/06 08:07:28;;;;;;;17.87;11.23;;;;;;;;;;5099259;28;20286;-68
2022/03/06 08:09:53;;;;;;;13.47;10.33;;;;;;;;;;5101776;28;20180;-68
2022/03/06 08:12:22;;;;;;;13.83;10.33;;;;;;;;;;5105944;27;20262;-68
2022/03/06 08:14:48;;;;;;;14.50;10.47;;;;;;;;;;5104928;28;20178;-68
2022/03/06 08:17:13;;;;;;;12.37;9.80;;;;;;;;;;5088217;28;20196;-68
2022/03/06 08:19:38;;;;;;;10.30;8.70;;;;;;;;;;5100953;27;20172;-68
2022/03/06 08:22:03;;;;;;;11.87;9.13;;;;;;;;;;5105809;28;20245;-68
2022/03/06 08:24:30;;;;;;;13.47;9.13;;;;;;;;;;5112883;27;20195;-68
2022/03/06 08:26:55;;;;;;;11.37;8.50;;;;;;;;;;5091704;28;20240;-68
2022/03/06 08:29:21;;;;;;;10.77;8.40;;;;;;;;;;5106309;28;20179;-68
2022/03/06 08:31:46;;;;;;;11.30;7.70;;;;;;;;;;5105264;28;20182;-68
2022/03/06 08:34:11;;;;;;;11.80;8.07;;;;;;;;;;5106841;28;20168;-68
2022/03/06 08:36:37;;;;;;;12.77;8.20;;;;;;;;;;5106673;28;20698;-69
2022/03/06 08:39:03;;;;;;;10.17;8.37;;;;;;;;;;5102307;28;20735;-68
2022/03/06 08:41:28;;;;;;;12.13;7.77;;;;;;;;;;5098123;28;20258;-68
2022/03/06 08:43:53;;;;;;;11.20;8.73;;;;;;;;;;5085812;28;20211;-68
2022/03/06 08:46:18;;;;;;;10.50;7.57;;;;;;;;;;5104815;28;20176;-68
2022/03/06 08:48:44;;;;;;;10.50;7.63;;;;;;;;;;5099036;28;20188;-68
2022/03/06 08:51:09;;;;;;;8.47;6.97;;;;;;;;;;5105399;28;20168;-68
2022/03/06 08:53:34;;;;;;;9.13;6.30;;;;;;;;;;5103981;28;20171;-67
2022/03/06 08:55:59;;;;;;;9.10;6.20;;;;;;;;;;5105588;28;20173;-68
2022/03/06 08:58:25;;;;;;;6.93;6.00;;;;;;;;;;5098841;28;20231;-68
2022/03/06 09:00:51;;;;;;;8.37;6.23;;;;;;;;;;5086889;28;20264;-68
2022/03/06 09:03:16;;;;;;;7.37;5.40;;;;;;;;;;5102206;28;20172;-68
2022/03/06 09:05:41;;;;;;;11.13;5.27;;;;;;;;;;5106283;28;20613;-68
2022/03/06 09:08:09;;;;;;;5.70;4.53;;;;;;;;;;5103321;28;20737;-68
2022/03/06 09:10:35;;;;;;;6.53;4.30;;;;;;;;;;5077400;28;20180;-68
2022/03/06 09:13:00;;;;;;;5.80;4.80;;;;;;;;;;5098002;28;20176;-68
2022/03/06 09:15:26;;;;;;;5.33;4.70;;;;;;;;;;5106045;28;20188;-68
2022/03/06 09:17:51;;;;;;;6.00;4.40;;;;;;;;;;5100561;28;20239;-68
2022/03/06 09:20:16;;;;;;;5.57;5.03;;;;;;;;;;5105967;28;20176;-68
2022/03/06 09:22:41;;;;;;;6.60;5.00;;;;;;;;;;5109498;27;20262;-68
2022/03/06 09:25:06;;;;;;;5.93;4.67;;;;;;;;;;5092195;28;20188;-68
2022/03/06 09:27:32;;;;;;;5.33;4.30;;;;;;;;;;5107385;28;20208;-67
2022/03/06 09:29:57;;;;;;;4.90;4.10;;;;;;;;;;5108174;28;20172;-68
2022/03/06 09:32:22;;;;;;;5.97;4.50;;;;;;;;;;5106065;28;20637;-67
2022/03/06 09:34:47;;;;;;;9.10;5.63;;;;;;;;;;5095820;28;20192;-68
2022/03/06 09:37:12;;;;;;;10.33;5.07;;;;;;;;;;5105232;28;20195;-68
2022/03/06 09:39:38;;;;;;;7.83;4.93;;;;;;;;;;5102742;28;20192;-67
2022/03/06 09:42:03;;;;;;;5.53;4.60;;;;;;;;;;5100660;28;21110;-67
2022/03/06 09:44:30;;;;;;;7.43;4.47;;;;;;;;;;5096167;28;20294;-66
2022/03/06 09:46:56;;;;;;;7.27;4.80;;;;;;;;;;5082282;28;20187;-67
2022/03/06 09:49:21;;;;;;;5.03;4.37;;;;;;;;;;5085557;28;20237;-67
2022/03/06 09:51:47;;;;;;;5.07;4.10;;;;;;;;;;5101963;28;20700;-67
2022/03/06 09:54:12;;;;;;;8.97;4.93;;;;;;;;;;5093222;28;20165;-68
2022/03/06 09:56:38;;;;;;;5.37;4.30;;;;;;;;;;5090587;28;20181;-67
2022/03/06 09:59:03;;;;;;;5.30;4.80;;;;;;;;;;5094946;28;20227;-68
2022/03/06 10:01:28;;;;;;;7.37;4.40;;;;;;;;;;5102896;28;20250;-68
2022/03/06 10:03:54;;;;;;;6.63;4.37;;;;;;;;;;5103063;28;20545;-68
2022/03/06 10:06:19;;;;;;;5.83;4.90;;;;;;;;;;5093724;28;20196;-68
2022/03/06 10:08:44;;;;;;;4.43;4.03;;;;;;;;;;5096824;28;20199;-67
2022/03/06 10:11:10;;;;;;;5.83;4.20;;;;;;;;;;5097200;28;20721;-68
2022/03/06 10:13:39;;;;;;;4.50;4.10;;;;;;;;;;5102663;28;20184;-68
2022/03/06 10:16:23;;;;;;;7.40;4.97;;;;;;;;;;5089034;28;20184;-68
2022/03/06 10:18:49;;;;;;;4.97;4.43;;;;;;;;;;5107305;28;20196;-68
2022/03/06 10:21:22;;;;;;;5.77;5.17;;;;;;;;;;5107415;28;20188;-69
2022/03/06 10:23:49;;;;;;;6.83;4.60;;;;;;;;;;5081097;28;20596;-67
2022/03/06 10:26:16;;;;;;;6.23;4.73;;;;;;;;;;5098730;28;20200;-68
2022/03/06 10:28:55;;;;;;;5.47;4.93;;;;;;;;;;5100744;28;20199;-68
2022/03/06 10:31:21;;;;;;;7.63;5.00;;;;;;;;;;5108558;28;20233;-68
2022/03/06 10:34:01;;;;;;;4.77;4.37;;;;;;;;;;5098908;28;20255;-67
2022/03/06 10:36:31;;;;;;;7.47;4.80;;;;;;;;;;5103208;28;20617;-67
2022/03/06 10:38:56;;;;;;;6.23;5.30;;;;;;;;;;5098306;28;20215;-68
2022/03/06 10:41:21;;;;;;;5.57;4.30;;;;;;;;;;5101353;28;20184;-68
2022/03/06 10:43:48;;;;;;;5.00;4.27;;;;;;;;;;5101767;28;20191;-68
2022/03/06 10:46:18;;;;;;;6.33;5.00;;;;;;;;;;5107936;28;20693;-67
2022/03/06 10:48:56;;;;;;;5.53;4.33;;;;;;;;;;5098685;28;20188;-67
2022/03/06 10:51:21;;;;;;;5.37;4.60;;;;;;;;;;5101595;28;20191;-67
2022/03/06 10:54:00;;;;;;;5.83;5.17;;;;;;;;;;5106041;28;20249;-66
2022/03/06 10:56:26;;;;;;;5.63;4.67;;;;;;;;;;5108365;28;20241;-68
2022/03/06 10:58:51;;;;;;;6.90;4.53;;;;;;;;;;5102103;28;20689;-68
2022/03/06 11:01:17;;;;;;;8.37;4.90;;;;;;;;;;5103508;28;20270;-68
2022/03/06 11:03:43;;;;;;;5.50;4.67;;;;;;;;;;5099425;28;20194;-68
2022/03/06 11:06:09;;;;;;;6.57;5.60;;;;;;;;;;5101780;28;20204;-68
2022/03/06 11:08:35;;;;;;;5.30;4.17;;;;;;;;;;5095571;28;20194;-67
2022/03/06 11:11:01;;;;;;;5.63;5.03;;;;;;;;;;5094169;28;20714;-68
2022/03/06 11:13:29;;;;;;;5.40;4.87;;;;;;;;;;5111377;28;20639;-67
2022/03/06 11:15:55;;;;;;;5.73;4.97;;;;;;;;;;5110258;28;20615;-68
2022/03/06 11:18:20;;;;;;;7.50;4.83;;;;;;;;;;5111022;28;20224;-68
2022/03/06 11:20:46;;;;;;;5.73;4.80;;;;;;;;;;5102773;28;20168;-68
2022/03/06 11:23:30;;;;;;;5.13;4.47;;;;;;;;;;5104704;28;20225;-67
2022/03/06 11:25:58;;;;;;;6.03;4.93;;;;;;;;;;5105902;28;20429;-68
2022/03/06 11:28:35;;;;;;;6.00;5.40;;;;;;;;;;5102393;28;20189;-68
2022/03/06 11:31:01;;;;;;;6.17;5.13;;;;;;;;;;5110461;28;20171;-68
2022/03/06 11:33:26;;;;;;;9.00;5.60;;;;;;;;;;5108792;28;20167;-67
2022/03/06 11:35:51;;;;;;;6.23;4.90;;;;;;;;;;5103465;28;20175;-68
2022/03/06 11:38:20;;;;;;;5.30;4.77;;;;;;;;;;5101921;28;20716;-68
2022/03/06 11:40:50;;;;;;;5.87;4.53;;;;;;;;;;5113883;27;20178;-68
2022/03/06 11:43:28;;;;;;;6.70;5.17;;;;;;;;;;5081513;28;20263;-68
2022/03/06 11:46:01;;;;;;;7.73;5.90;;;;;;;;;;5104421;28;20200;-69
2022/03/06 11:48:32;;;;;;;6.53;5.53;;;;;;;;;;5107210;28;20199;-68
2022/03/06 11:51:22;;;;;;;6.33;5.03;;;;;;;;;;5099513;28;20202;-68
2022/03/06 11:54:02;;;;;;;6.80;6.10;;;;;;;;;;5102026;28;20275;-68
2022/03/06 11:56:33;;;;;;;7.47;6.03;;;;;;;;;;5104479;28;20163;-68
2022/03/06 11:59:22;;;;;;;7.10;5.97;;;;;;;;;;5082473;28;20608;-68
2022/03/06 12:01:48;;;;;;;6.43;5.83;;;;;;;;;;5089553;28;20575;-66
2022/03/06 12:04:24;;;;;;;9.13;5.90;;;;;;;;;;5102799;28;20176;-68
2022/03/06 12:06:51;;;;;;;7.80;6.33;;;;;;;;;;5104449;28;20421;-68
2022/03/06 12:09:21;;;;;;;7.13;6.10;;;;;;;;;;5102850;28;20254;-68
2022/03/06 12:11:46;;;;;;;7.70;6.83;;;;;;;;;;5096765;28;20263;-69
2022/03/06 12:14:12;;;;;;;6.93;6.23;;;;;;;;;;5105838;28;20251;-69
2022/03/06 12:16:57;;;;;;;8.37;6.67;;;;;;;;;;5104377;28;20203;-68
2022/03/06 12:19:22;;;;;;;7.20;6.13;;;;;;;;;;5087449;28;20949;-68
2022/03/06 12:21:47;;;;;;;6.30;5.70;;;;;;;;;;5109472;28;20171;-68
2022/03/06 12:24:26;;;;;;;7.53;6.33;;;;;;;;;;5103944;28;20259;-68
2022/03/06 12:26:52;;;;;;;11.10;6.90;;;;;;;;;;5102668;28;20168;-69
2022/03/06 12:29:43;;;;;;;6.00;5.37;;;;;;;;;;5099817;28;20171;-68
2022/03/06 12:32:33;;;;;;;7.03;5.90;;;;;;;;;;5105931;28;20180;-68
2022/03/06 12:35:06;;;;;;;7.20;6.43;;;;;;;;;;5103626;28;20192;-67
2022/03/06 12:37:35;;;;;;;7.57;5.90;;;;;;;;;;5101159;28;20569;-68
2022/03/06 12:40:02;;;;;;;10.27;5.63;;;;;;;;;;5106022;27;20183;-69
2022/03/06 12:42:31;;;;;;;9.13;6.60;;;;;;;;;;5099680;28;20704;-68
2022/03/06 12:44:58;;;;;;;7.07;5.90;;;;;;;;;;5094115;27;20682;-66
2022/03/06 12:47:23;;;;;;;7.23;5.73;;;;;;;;;;5104427;28;20203;-68
2022/03/06 12:49:50;;;;;;;7.33;6.63;;;;;;;;;;5099071;28;20233;-68
2022/03/06 12:52:15;;;;;;;6.17;5.50;;;;;;;;;;5100567;28;20181;-68
2022/03/06 12:54:41;;;;;;;6.03;5.40;;;;;;;;;;5104439;28;20168;-68
2022/03/06 12:57:06;;;;;;;6.70;6.00;;;;;;;;;;5102364;28;20596;-67
2022/03/06 12:59:35;;;;;;;6.83;6.20;;;;;;;;;;5107328;28;20186;-69
2022/03/06 13:02:00;;;;;;;7.23;5.57;;;;;;;;;;5101512;28;20183;-67
2022/03/06 13:04:25;;;;;;;6.07;5.47;;;;;;;;;;5095353;28;20210;-68
2022/03/06 13:06:51;;;;;;;6.40;5.23;;;;;;;;;;5098960;28;20263;-68
2022/03/06 13:09:21;;;;;;;8.33;6.20;;;;;;;;;;5099901;28;20190;-68
2022/03/06 13:11:47;;;;;;;6.97;5.37;;;;;;;;;;5077556;28;20208;-67
2022/03/06 13:14:12;;;;;;;6.90;5.63;;;;;;;;;;5098533;28;20180;-69
2022/03/06 13:16:37;;;;;;;5.63;5.10;;;;;;;;;;5098547;28;20183;-68
2022/03/06 13:19:04;;;;;;;5.87;5.00;;;;;;;;;;5094036;28;20576;-69
2022/03/06 13:21:29;;;;;;;5.87;5.17;;;;;;;;;;5105684;28;20195;-69
2022/03/06 13:23:55;;;;;;;7.00;5.17;;;;;;;;;;5101380;27;20204;-68
2022/03/06 13:26:20;;;;;;;6.10;5.47;;;;;;;;;;5102823;28;20196;-68
2022/03/06 13:28:46;;;;;;;6.30;5.03;;;;;;;;;;5100899;28;20203;-68
2022/03/06 13:31:11;;;;;;;6.43;4.70;;;;;;;;;;5106217;28;20203;-68
2022/03/06 13:33:36;;;;;;;6.90;5.17;;;;;;;;;;5095372;28;20180;-69
2022/03/06 13:36:11;;;;;;;7.30;5.13;;;;;;;;;;5103126;27;20225;-68
2022/03/06 13:38:36;;;;;;;7.77;5.60;;;;;;;;;;5101077;27;20211;-67
2022/03/06 13:41:12;;;;;;;7.37;4.80;;;;;;;;;;5104395;27;20301;-68
2022/03/06 13:43:38;;;;;;;6.13;4.90;;;;;;;;;;5104970;28;20178;-68
2022/03/06 13:46:04;;;;;;;4.97;4.17;;;;;;;;;;5100337;28;20199;-68
2022/03/06 13:48:31;;;;;;;5.87;4.37;;;;;;;;;;5097970;28;20200;-68
2022/03/06 13:50:57;;;;;;;4.60;3.83;;;;;;;;;;5104137;28;20199;-68
2022/03/06 13:53:22;;;;;;;4.20;3.80;;;;;;;;;;5096484;28;20209;-68
2022/03/06 13:55:55;;;;;;;3.80;3.40;;;;;;;;;;5102817;28;20183;-68
2022/03/06 13:58:21;;;;;;;3.87;3.03;;;;;;;;;;5102488;28;20199;-68
2022/03/06 14:00:47;;;;;;;5.07;3.50;;;;;;;;;;5093046;28;20191;-67
2022/03/06 14:03:14;;;;;;;3.37;2.83;;;;;;;;;;5102780;28;20179;-67
2022/03/06 14:05:39;;;;;;;4.37;3.03;;;;;;;;;;5094818;28;20594;-68
2022/03/06 14:08:11;;;;;;;3.43;3.13;;;;;;;;;;5098203;28;20188;-67
2022/03/06 14:10:37;;;;;;;3.67;2.90;;;;;;;;;;5102944;28;20175;-67
2022/03/06 14:13:02;;;;;;;3.13;2.57;;;;;;;;;;5103661;28;20168;-68
2022/03/06 14:15:27;;;;;;;3.27;2.67;;;;;;;;;;5076472;28;20183;-68
2022/03/06 14:17:55;;;;;;;3.90;2.90;;;;;;;;;;5099075;28;20191;-68
2022/03/06 14:20:20;;;;;;;2.63;2.23;;;;;;;;;;5086545;28;20186;-67